sensor_id;sensor_type;location;lat;lon;timestamp;P1;durP1;ratioP1;P2;durP2;ratioP2
64353;SDS011;50681;53.334;-6.536;2023-08-24T00:00:53;10.67;;;2.40;;
64353;SDS011;50681;53.334;-6.536;2023-08-24T00:03:18;7.63;;;2.30;;
64353;SDS011;50681;53.334;-6.536;2023-08-24T00:05:47;7.55;;;2.20;;
64353;SDS011;50681;53.334;-6.536;2023-08-24T00:08:13;7.88;;;2.35;;
64353;SDS011;50681;53.334;-6.536;2023-08-24T00:10:38;11.70;;;2.90;;
64353;SDS011;50681;53.334;-6.536;2023-08-24T00:13:03;11.50;;;2.63;;
64353;SDS011;50681;53.334;-6.536;2023-08-24T00:15:29;12.65;;;2.85;;
64353;SDS011;50681;53.334;-6.536;2023-08-24T00:17:55;14.85;;;3.00;;
64353;SDS011;50681;53.334;-6.536;2023-08-24T00:20:21;14.18;;;2.47;;
64353;SDS011;50681;53.334;-6.536;2023-08-24T00:22:46;16.10;;;3.23;;
64353;SDS011;50681;53.334;-6.536;2023-08-24T00:25:12;15.17;;;2.77;;
64353;SDS011;50681;53.334;-6.536;2023-08-24T00:27:38;11.93;;;2.55;;
64353;SDS011;50681;53.334;-6.536;2023-08-24T00:30:04;10.13;;;3.00;;
64353;SDS011;50681;53.334;-6.536;2023-08-24T00:32:34;11.85;;;3.08;;
64353;SDS011;50681;53.334;-6.536;2023-08-24T00:35:06;17.38;;;3.10;;
64353;SDS011;50681;53.334;-6.536;2023-08-24T00:37:34;16.25;;;3.13;;
64353;SDS011;50681;53.334;-6.536;2023-08-24T00:40:00;14.63;;;3.15;;
64353;SDS011;50681;53.334;-6.536;2023-08-24T00:42:30;11.93;;;2.58;;
64353;SDS011;50681;53.334;-6.536;2023-08-24T00:44:57;11.73;;;3.05;;
64353;SDS011;50681;53.334;-6.536;2023-08-24T00:47:23;9.43;;;2.70;;
64353;SDS011;50681;53.334;-6.536;2023-08-24T00:49:48;12.50;;;3.10;;
64353;SDS011;50681;53.334;-6.536;2023-08-24T00:52:14;12.95;;;3.55;;
64353;SDS011;50681;53.334;-6.536;2023-08-24T00:57:06;11.60;;;2.80;;
64353;SDS011;50681;53.334;-6.536;2023-08-24T00:59:32;20.70;;;3.20;;
64353;SDS011;50681;53.334;-6.536;2023-08-24T01:01:59;10.70;;;2.83;;
64353;SDS011;50681;53.334;-6.536;2023-08-24T01:04:25;18.08;;;3.13;;
64353;SDS011;50681;53.334;-6.536;2023-08-24T01:06:51;12.60;;;2.92;;
64353;SDS011;50681;53.334;-6.536;2023-08-24T01:09:17;11.20;;;2.50;;
64353;SDS011;50681;53.334;-6.536;2023-08-24T01:11:54;12.70;;;2.42;;
64353;SDS011;50681;53.334;-6.536;2023-08-24T01:19:45;15.57;;;2.75;;
64353;SDS011;50681;53.334;-6.536;2023-08-24T01:25:00;12.60;;;3.03;;
64353;SDS011;50681;53.334;-6.536;2023-08-24T01:27:36;13.60;;;2.80;;
64353;SDS011;50681;53.334;-6.536;2023-08-24T01:30:03;11.55;;;2.40;;
64353;SDS011;50681;53.334;-6.536;2023-08-24T01:32:30;10.23;;;2.95;;
64353;SDS011;50681;53.334;-6.536;2023-08-24T01:34:57;13.05;;;2.75;;
64353;SDS011;50681;53.334;-6.536;2023-08-24T01:37:32;15.30;;;3.38;;
64353;SDS011;50681;53.334;-6.536;2023-08-24T01:40:06;13.68;;;3.40;;
64353;SDS011;50681;53.334;-6.536;2023-08-24T01:45:28;13.85;;;2.95;;
64353;SDS011;50681;53.334;-6.536;2023-08-24T01:47:56;13.52;;;2.80;;
64353;SDS011;50681;53.334;-6.536;2023-08-24T01:50:24;11.13;;;3.00;;
64353;SDS011;50681;53.334;-6.536;2023-08-24T01:52:50;11.10;;;2.60;;
64353;SDS011;50681;53.334;-6.536;2023-08-24T01:55:19;8.70;;;2.60;;
64353;SDS011;50681;53.334;-6.536;2023-08-24T01:57:44;16.13;;;2.80;;
64353;SDS011;50681;53.334;-6.536;2023-08-24T02:00:10;8.67;;;2.50;;
64353;SDS011;50681;53.334;-6.536;2023-08-24T02:02:36;8.43;;;2.25;;
64353;SDS011;50681;53.334;-6.536;2023-08-24T02:05:02;13.38;;;3.10;;
64353;SDS011;50681;53.334;-6.536;2023-08-24T02:09:53;13.48;;;2.55;;
64353;SDS011;50681;53.334;-6.536;2023-08-24T02:12:19;8.02;;;2.63;;
64353;SDS011;50681;53.334;-6.536;2023-08-24T02:14:44;13.67;;;2.20;;
64353;SDS011;50681;53.334;-6.536;2023-08-24T02:17:10;11.77;;;2.93;;
64353;SDS011;50681;53.334;-6.536;2023-08-24T02:19:35;8.02;;;2.75;;
64353;SDS011;50681;53.334;-6.536;2023-08-24T02:22:01;16.77;;;2.50;;
64353;SDS011;50681;53.334;-6.536;2023-08-24T02:24:26;10.60;;;2.40;;
64353;SDS011;50681;53.334;-6.536;2023-08-24T02:26:52;12.15;;;2.88;;
64353;SDS011;50681;53.334;-6.536;2023-08-24T02:29:17;18.03;;;2.83;;
64353;SDS011;50681;53.334;-6.536;2023-08-24T02:31:43;6.87;;;2.60;;
64353;SDS011;50681;53.334;-6.536;2023-08-24T02:34:08;9.13;;;2.53;;
64353;SDS011;50681;53.334;-6.536;2023-08-24T02:36:33;11.80;;;2.73;;
64353;SDS011;50681;53.334;-6.536;2023-08-24T02:38:59;10.87;;;2.40;;
64353;SDS011;50681;53.334;-6.536;2023-08-24T02:41:26;10.25;;;3.10;;
64353;SDS011;50681;53.334;-6.536;2023-08-24T02:43:52;9.45;;;3.28;;
64353;SDS011;50681;53.334;-6.536;2023-08-24T02:46:17;9.77;;;2.30;;
64353;SDS011;50681;53.334;-6.536;2023-08-24T02:48:46;12.63;;;2.42;;
64353;SDS011;50681;53.334;-6.536;2023-08-24T02:51:12;11.38;;;2.50;;
64353;SDS011;50681;53.334;-6.536;2023-08-24T02:56:04;9.10;;;2.30;;
64353;SDS011;50681;53.334;-6.536;2023-08-24T02:58:30;10.25;;;2.75;;
64353;SDS011;50681;53.334;-6.536;2023-08-24T03:00:56;7.03;;;2.40;;
64353;SDS011;50681;53.334;-6.536;2023-08-24T03:03:23;9.63;;;3.00;;
64353;SDS011;50681;53.334;-6.536;2023-08-24T03:05:57;9.88;;;2.97;;
64353;SDS011;50681;53.334;-6.536;2023-08-24T03:08:24;16.25;;;3.40;;
64353;SDS011;50681;53.334;-6.536;2023-08-24T03:10:50;6.78;;;2.85;;
64353;SDS011;50681;53.334;-6.536;2023-08-24T03:13:16;10.65;;;2.95;;
64353;SDS011;50681;53.334;-6.536;2023-08-24T03:15:42;11.77;;;2.72;;
64353;SDS011;50681;53.334;-6.536;2023-08-24T03:18:09;7.15;;;2.90;;
64353;SDS011;50681;53.334;-6.536;2023-08-24T03:20:38;12.63;;;2.85;;
64353;SDS011;50681;53.334;-6.536;2023-08-24T03:23:03;10.75;;;2.72;;
64353;SDS011;50681;53.334;-6.536;2023-08-24T03:25:29;11.98;;;3.45;;
64353;SDS011;50681;53.334;-6.536;2023-08-24T03:27:54;11.77;;;3.07;;
64353;SDS011;50681;53.334;-6.536;2023-08-24T03:30:20;9.32;;;2.60;;
64353;SDS011;50681;53.334;-6.536;2023-08-24T03:32:47;13.13;;;2.97;;
64353;SDS011;50681;53.334;-6.536;2023-08-24T03:35:13;14.57;;;2.67;;
64353;SDS011;50681;53.334;-6.536;2023-08-24T03:37:40;8.48;;;2.50;;
64353;SDS011;50681;53.334;-6.536;2023-08-24T03:40:05;19.40;;;3.10;;
64353;SDS011;50681;53.334;-6.536;2023-08-24T03:42:31;10.50;;;2.78;;
64353;SDS011;50681;53.334;-6.536;2023-08-24T03:44:58;12.97;;;3.20;;
64353;SDS011;50681;53.334;-6.536;2023-08-24T03:47:24;9.90;;;2.75;;
64353;SDS011;50681;53.334;-6.536;2023-08-24T03:49:50;13.00;;;2.63;;
64353;SDS011;50681;53.334;-6.536;2023-08-24T03:52:15;9.97;;;3.03;;
64353;SDS011;50681;53.334;-6.536;2023-08-24T03:54:41;10.97;;;2.47;;
64353;SDS011;50681;53.334;-6.536;2023-08-24T03:57:06;11.73;;;2.77;;
64353;SDS011;50681;53.334;-6.536;2023-08-24T03:59:32;14.33;;;2.77;;
64353;SDS011;50681;53.334;-6.536;2023-08-24T04:01:57;11.50;;;2.50;;
64353;SDS011;50681;53.334;-6.536;2023-08-24T04:04:26;17.08;;;3.13;;
64353;SDS011;50681;53.334;-6.536;2023-08-24T04:06:53;9.57;;;3.08;;
64353;SDS011;50681;53.334;-6.536;2023-08-24T04:09:18;18.40;;;3.40;;
64353;SDS011;50681;53.334;-6.536;2023-08-24T04:11:44;10.20;;;2.93;;
64353;SDS011;50681;53.334;-6.536;2023-08-24T04:14:09;11.33;;;3.40;;
64353;SDS011;50681;53.334;-6.536;2023-08-24T04:16:35;12.20;;;2.72;;
64353;SDS011;50681;53.334;-6.536;2023-08-24T04:19:01;15.53;;;2.70;;
64353;SDS011;50681;53.334;-6.536;2023-08-24T04:21:26;10.53;;;2.60;;
64353;SDS011;50681;53.334;-6.536;2023-08-24T04:23:52;12.82;;;2.90;;
64353;SDS011;50681;53.334;-6.536;2023-08-24T04:26:18;12.88;;;3.30;;
64353;SDS011;50681;53.334;-6.536;2023-08-24T04:28:43;13.73;;;3.00;;
64353;SDS011;50681;53.334;-6.536;2023-08-24T04:31:09;9.67;;;2.83;;
64353;SDS011;50681;53.334;-6.536;2023-08-24T04:33:34;9.10;;;2.43;;
64353;SDS011;50681;53.334;-6.536;2023-08-24T04:35:59;16.17;;;3.20;;
64353;SDS011;50681;53.334;-6.536;2023-08-24T04:38:28;11.63;;;2.90;;
64353;SDS011;50681;53.334;-6.536;2023-08-24T04:40:54;15.05;;;3.17;;
64353;SDS011;50681;53.334;-6.536;2023-08-24T04:43:22;9.20;;;2.58;;
64353;SDS011;50681;53.334;-6.536;2023-08-24T04:45:49;14.52;;;3.10;;
64353;SDS011;50681;53.334;-6.536;2023-08-24T04:48:17;13.95;;;2.85;;
64353;SDS011;50681;53.334;-6.536;2023-08-24T04:50:46;12.18;;;2.80;;
64353;SDS011;50681;53.334;-6.536;2023-08-24T04:53:16;14.20;;;2.80;;
64353;SDS011;50681;53.334;-6.536;2023-08-24T04:55:43;21.90;;;3.67;;
64353;SDS011;50681;53.334;-6.536;2023-08-24T04:58:09;11.32;;;2.83;;
64353;SDS011;50681;53.334;-6.536;2023-08-24T05:00:36;11.27;;;2.90;;
64353;SDS011;50681;53.334;-6.536;2023-08-24T05:03:02;9.25;;;2.60;;
64353;SDS011;50681;53.334;-6.536;2023-08-24T05:05:32;6.57;;;2.83;;
64353;SDS011;50681;53.334;-6.536;2023-08-24T05:07:58;8.10;;;2.75;;
64353;SDS011;50681;53.334;-6.536;2023-08-24T05:10:25;14.70;;;3.17;;
64353;SDS011;50681;53.334;-6.536;2023-08-24T05:12:51;13.95;;;3.17;;
64353;SDS011;50681;53.334;-6.536;2023-08-24T05:15:16;8.17;;;3.27;;
64353;SDS011;50681;53.334;-6.536;2023-08-24T05:17:42;15.23;;;3.00;;
64353;SDS011;50681;53.334;-6.536;2023-08-24T05:20:08;18.08;;;3.33;;
64353;SDS011;50681;53.334;-6.536;2023-08-24T05:22:37;16.40;;;3.50;;
64353;SDS011;50681;53.334;-6.536;2023-08-24T05:25:03;12.30;;;3.20;;
64353;SDS011;50681;53.334;-6.536;2023-08-24T05:27:29;9.70;;;3.00;;
64353;SDS011;50681;53.334;-6.536;2023-08-24T05:29:55;14.00;;;3.43;;
64353;SDS011;50681;53.334;-6.536;2023-08-24T05:32:20;11.40;;;2.87;;
64353;SDS011;50681;53.334;-6.536;2023-08-24T05:34:46;14.23;;;2.87;;
64353;SDS011;50681;53.334;-6.536;2023-08-24T05:37:11;14.53;;;3.63;;
64353;SDS011;50681;53.334;-6.536;2023-08-24T05:39:37;15.37;;;3.30;;
64353;SDS011;50681;53.334;-6.536;2023-08-24T05:42:03;13.38;;;3.03;;
64353;SDS011;50681;53.334;-6.536;2023-08-24T05:44:29;7.67;;;3.23;;
64353;SDS011;50681;53.334;-6.536;2023-08-24T05:46:54;10.70;;;3.07;;
64353;SDS011;50681;53.334;-6.536;2023-08-24T05:49:20;11.90;;;2.93;;
64353;SDS011;50681;53.334;-6.536;2023-08-24T05:51:45;7.97;;;2.70;;
64353;SDS011;50681;53.334;-6.536;2023-08-24T05:54:11;12.13;;;2.90;;
64353;SDS011;50681;53.334;-6.536;2023-08-24T05:56:38;9.35;;;2.90;;
64353;SDS011;50681;53.334;-6.536;2023-08-24T05:59:03;9.70;;;3.20;;
64353;SDS011;50681;53.334;-6.536;2023-08-24T06:01:30;17.90;;;3.30;;
64353;SDS011;50681;53.334;-6.536;2023-08-24T06:03:58;11.68;;;3.40;;
64353;SDS011;50681;53.334;-6.536;2023-08-24T06:06:23;13.20;;;3.17;;
64353;SDS011;50681;53.334;-6.536;2023-08-24T06:08:49;10.40;;;4.07;;
64353;SDS011;50681;53.334;-6.536;2023-08-24T06:11:14;15.30;;;4.70;;
64353;SDS011;50681;53.334;-6.536;2023-08-24T06:13:40;15.63;;;4.87;;
64353;SDS011;50681;53.334;-6.536;2023-08-24T06:16:05;11.85;;;4.50;;
64353;SDS011;50681;53.334;-6.536;2023-08-24T06:18:31;13.27;;;4.03;;
64353;SDS011;50681;53.334;-6.536;2023-08-24T06:20:57;15.93;;;5.37;;
64353;SDS011;50681;53.334;-6.536;2023-08-24T06:23:22;13.80;;;4.97;;
64353;SDS011;50681;53.334;-6.536;2023-08-24T06:25:48;16.60;;;5.80;;
64353;SDS011;50681;53.334;-6.536;2023-08-24T06:28:13;17.57;;;5.70;;
64353;SDS011;50681;53.334;-6.536;2023-08-24T06:30:39;23.00;;;7.63;;
64353;SDS011;50681;53.334;-6.536;2023-08-24T06:33:06;29.02;;;9.07;;
64353;SDS011;50681;53.334;-6.536;2023-08-24T06:35:35;23.20;;;8.20;;
64353;SDS011;50681;53.334;-6.536;2023-08-24T06:38:01;36.05;;;9.85;;
64353;SDS011;50681;53.334;-6.536;2023-08-24T06:42:53;37.30;;;7.05;;
64353;SDS011;50681;53.334;-6.536;2023-08-24T06:45:19;103.75;;;7.00;;
64353;SDS011;50681;53.334;-6.536;2023-08-24T06:47:44;60.77;;;7.47;;
64353;SDS011;50681;53.334;-6.536;2023-08-24T06:50:10;65.57;;;7.82;;
64353;SDS011;50681;53.334;-6.536;2023-08-24T06:52:35;36.90;;;7.77;;
64353;SDS011;50681;53.334;-6.536;2023-08-24T06:55:01;66.33;;;7.77;;
64353;SDS011;50681;53.334;-6.536;2023-08-24T06:57:27;30.38;;;7.32;;
64353;SDS011;50681;53.334;-6.536;2023-08-24T06:59:52;24.53;;;6.40;;
64353;SDS011;50681;53.334;-6.536;2023-08-24T07:02:18;19.80;;;6.50;;
64353;SDS011;50681;53.334;-6.536;2023-08-24T07:04:43;18.97;;;5.27;;
64353;SDS011;50681;53.334;-6.536;2023-08-24T07:07:09;16.10;;;6.28;;
64353;SDS011;50681;53.334;-6.536;2023-08-24T07:09:35;15.93;;;6.03;;
64353;SDS011;50681;53.334;-6.536;2023-08-24T07:12:04;10.40;;;6.20;;
64353;SDS011;50681;53.334;-6.536;2023-08-24T07:14:32;16.30;;;7.70;;
64353;SDS011;50681;53.334;-6.536;2023-08-24T07:16:58;14.50;;;6.63;;
64353;SDS011;50681;53.334;-6.536;2023-08-24T07:19:23;13.50;;;6.50;;
64353;SDS011;50681;53.334;-6.536;2023-08-24T07:21:49;12.88;;;5.75;;
64353;SDS011;50681;53.334;-6.536;2023-08-24T07:24:14;19.43;;;6.30;;
64353;SDS011;50681;53.334;-6.536;2023-08-24T07:26:40;12.77;;;5.47;;
64353;SDS011;50681;53.334;-6.536;2023-08-24T07:29:07;14.00;;;4.85;;
64353;SDS011;50681;53.334;-6.536;2023-08-24T07:31:33;13.77;;;4.05;;
64353;SDS011;50681;53.334;-6.536;2023-08-24T07:33:58;12.17;;;4.77;;
64353;SDS011;50681;53.334;-6.536;2023-08-24T07:36:23;13.27;;;3.73;;
64353;SDS011;50681;53.334;-6.536;2023-08-24T07:38:49;11.30;;;3.27;;
64353;SDS011;50681;53.334;-6.536;2023-08-24T07:41:14;10.73;;;3.17;;
64353;SDS011;50681;53.334;-6.536;2023-08-24T07:43:42;11.38;;;3.58;;
64353;SDS011;50681;53.334;-6.536;2023-08-24T07:46:08;8.10;;;2.03;;
64353;SDS011;50681;53.334;-6.536;2023-08-24T07:48:34;9.02;;;1.95;;
64353;SDS011;50681;53.334;-6.536;2023-08-24T07:50:59;8.07;;;1.90;;
64353;SDS011;50681;53.334;-6.536;2023-08-24T07:53:25;9.80;;;1.80;;
64353;SDS011;50681;53.334;-6.536;2023-08-24T07:55:50;11.00;;;2.43;;
64353;SDS011;50681;53.334;-6.536;2023-08-24T07:58:17;9.27;;;1.90;;
64353;SDS011;50681;53.334;-6.536;2023-08-24T08:00:42;14.17;;;2.07;;
64353;SDS011;50681;53.334;-6.536;2023-08-24T08:03:09;8.60;;;2.03;;
64353;SDS011;50681;53.334;-6.536;2023-08-24T08:08:24;10.75;;;1.67;;
64353;SDS011;50681;53.334;-6.536;2023-08-24T08:10:57;8.27;;;1.50;;
64353;SDS011;50681;53.334;-6.536;2023-08-24T08:13:24;7.97;;;1.75;;
64353;SDS011;50681;53.334;-6.536;2023-08-24T08:15:50;8.98;;;1.83;;
64353;SDS011;50681;53.334;-6.536;2023-08-24T08:18:16;8.70;;;2.17;;
64353;SDS011;50681;53.334;-6.536;2023-08-24T08:20:41;6.13;;;1.77;;
64353;SDS011;50681;53.334;-6.536;2023-08-24T08:23:06;17.97;;;2.40;;
64353;SDS011;50681;53.334;-6.536;2023-08-24T08:25:32;11.67;;;2.00;;
64353;SDS011;50681;53.334;-6.536;2023-08-24T08:27:58;7.05;;;1.65;;
64353;SDS011;50681;53.334;-6.536;2023-08-24T08:30:23;16.40;;;1.97;;
64353;SDS011;50681;53.334;-6.536;2023-08-24T08:32:49;14.80;;;2.30;;
64353;SDS011;50681;53.334;-6.536;2023-08-24T08:35:16;10.48;;;1.60;;
64353;SDS011;50681;53.334;-6.536;2023-08-24T08:37:44;13.57;;;2.15;;
64353;SDS011;50681;53.334;-6.536;2023-08-24T08:40:10;14.95;;;1.88;;
64353;SDS011;50681;53.334;-6.536;2023-08-24T08:42:36;7.80;;;2.13;;
64353;SDS011;50681;53.334;-6.536;2023-08-24T08:45:03;7.22;;;1.88;;
64353;SDS011;50681;53.334;-6.536;2023-08-24T08:47:32;7.07;;;1.50;;
64353;SDS011;50681;53.334;-6.536;2023-08-24T08:49:58;8.27;;;2.53;;
64353;SDS011;50681;53.334;-6.536;2023-08-24T08:52:28;5.93;;;1.38;;
64353;SDS011;50681;53.334;-6.536;2023-08-24T08:54:53;7.22;;;1.10;;
64353;SDS011;50681;53.334;-6.536;2023-08-24T08:57:19;4.50;;;1.20;;
64353;SDS011;50681;53.334;-6.536;2023-08-24T08:59:48;5.38;;;1.48;;
64353;SDS011;50681;53.334;-6.536;2023-08-24T09:02:18;8.25;;;1.23;;
64353;SDS011;50681;53.334;-6.536;2023-08-24T09:04:47;8.23;;;1.58;;
64353;SDS011;50681;53.334;-6.536;2023-08-24T09:07:15;8.15;;;1.33;;
64353;SDS011;50681;53.334;-6.536;2023-08-24T09:09:41;6.00;;;1.67;;
64353;SDS011;50681;53.334;-6.536;2023-08-24T09:12:07;6.03;;;1.83;;
64353;SDS011;50681;53.334;-6.536;2023-08-24T09:14:33;5.63;;;1.42;;
64353;SDS011;50681;53.334;-6.536;2023-08-24T09:16:59;12.18;;;1.90;;
64353;SDS011;50681;53.334;-6.536;2023-08-24T09:19:29;7.53;;;1.55;;
64353;SDS011;50681;53.334;-6.536;2023-08-24T09:21:59;16.00;;;1.75;;
64353;SDS011;50681;53.334;-6.536;2023-08-24T09:24:29;3.58;;;1.00;;
64353;SDS011;50681;53.334;-6.536;2023-08-24T09:26:57;5.38;;;1.40;;
64353;SDS011;50681;53.334;-6.536;2023-08-24T09:29:22;7.63;;;1.55;;
64353;SDS011;50681;53.334;-6.536;2023-08-24T09:31:49;5.27;;;1.23;;
64353;SDS011;50681;53.334;-6.536;2023-08-24T09:34:15;6.55;;;1.40;;
64353;SDS011;50681;53.334;-6.536;2023-08-24T09:36:45;5.85;;;1.30;;
64353;SDS011;50681;53.334;-6.536;2023-08-24T09:39:11;9.20;;;1.08;;
64353;SDS011;50681;53.334;-6.536;2023-08-24T09:45:55;7.35;;;1.08;;
64353;SDS011;50681;53.334;-6.536;2023-08-24T09:48:22;10.02;;;1.27;;
64353;SDS011;50681;53.334;-6.536;2023-08-24T09:50:50;7.07;;;1.67;;
64353;SDS011;50681;53.334;-6.536;2023-08-24T09:53:18;7.72;;;1.20;;
64353;SDS011;50681;53.334;-6.536;2023-08-24T09:55:57;5.75;;;1.70;;
64353;SDS011;50681;53.334;-6.536;2023-08-24T09:58:26;6.90;;;1.15;;
64353;SDS011;50681;53.334;-6.536;2023-08-24T10:00:53;5.55;;;1.52;;
64353;SDS011;50681;53.334;-6.536;2023-08-24T10:03:24;6.97;;;1.20;;
64353;SDS011;50681;53.334;-6.536;2023-08-24T10:05:52;8.27;;;1.35;;
64353;SDS011;50681;53.334;-6.536;2023-08-24T10:11:02;8.20;;;1.98;;
64353;SDS011;50681;53.334;-6.536;2023-08-24T10:16:19;5.05;;;1.27;;
64353;SDS011;50681;53.334;-6.536;2023-08-24T10:18:46;7.13;;;1.35;;
64353;SDS011;50681;53.334;-6.536;2023-08-24T10:21:12;6.53;;;1.48;;
64353;SDS011;50681;53.334;-6.536;2023-08-24T10:23:39;10.30;;;1.52;;
64353;SDS011;50681;53.334;-6.536;2023-08-24T10:26:05;5.88;;;1.20;;
64353;SDS011;50681;53.334;-6.536;2023-08-24T10:28:32;7.85;;;1.92;;
64353;SDS011;50681;53.334;-6.536;2023-08-24T10:30:58;7.80;;;1.45;;
64353;SDS011;50681;53.334;-6.536;2023-08-24T10:33:26;6.60;;;1.05;;
64353;SDS011;50681;53.334;-6.536;2023-08-24T10:35:53;7.93;;;1.17;;
64353;SDS011;50681;53.334;-6.536;2023-08-24T10:38:28;2.65;;;0.90;;
64353;SDS011;50681;53.334;-6.536;2023-08-24T10:40:55;4.17;;;0.90;;
64353;SDS011;50681;53.334;-6.536;2023-08-24T10:43:29;4.97;;;1.20;;
64353;SDS011;50681;53.334;-6.536;2023-08-24T10:45:55;5.15;;;1.52;;
64353;SDS011;50681;53.334;-6.536;2023-08-24T10:48:29;5.88;;;1.02;;
64353;SDS011;50681;53.334;-6.536;2023-08-24T10:53:53;5.05;;;1.10;;
64353;SDS011;50681;53.334;-6.536;2023-08-24T10:56:21;7.68;;;1.42;;
64353;SDS011;50681;53.334;-6.536;2023-08-24T10:59:09;5.07;;;1.08;;
64353;SDS011;50681;53.334;-6.536;2023-08-24T11:01:38;3.20;;;0.85;;
64353;SDS011;50681;53.334;-6.536;2023-08-24T11:04:05;7.13;;;1.35;;
64353;SDS011;50681;53.334;-6.536;2023-08-24T11:06:32;5.82;;;0.85;;
64353;SDS011;50681;53.334;-6.536;2023-08-24T11:09:05;6.45;;;1.17;;
64353;SDS011;50681;53.334;-6.536;2023-08-24T11:11:39;4.63;;;1.02;;
64353;SDS011;50681;53.334;-6.536;2023-08-24T11:14:16;6.40;;;1.02;;
64353;SDS011;50681;53.334;-6.536;2023-08-24T11:16:52;3.85;;;0.73;;
64353;SDS011;50681;53.334;-6.536;2023-08-24T11:19:23;5.13;;;1.20;;
64353;SDS011;50681;53.334;-6.536;2023-08-24T11:21:52;5.30;;;1.00;;
64353;SDS011;50681;53.334;-6.536;2023-08-24T11:24:20;7.28;;;1.80;;
64353;SDS011;50681;53.334;-6.536;2023-08-24T11:26:48;5.93;;;1.30;;
64353;SDS011;50681;53.334;-6.536;2023-08-24T11:29:14;2.15;;;0.90;;
64353;SDS011;50681;53.334;-6.536;2023-08-24T11:31:43;2.53;;;0.65;;
64353;SDS011;50681;53.334;-6.536;2023-08-24T11:34:09;2.42;;;0.77;;
64353;SDS011;50681;53.334;-6.536;2023-08-24T11:36:42;1.92;;;0.88;;
64353;SDS011;50681;53.334;-6.536;2023-08-24T11:39:13;1.30;;;0.32;;
64353;SDS011;50681;53.334;-6.536;2023-08-24T11:41:40;2.80;;;0.70;;
64353;SDS011;50681;53.334;-6.536;2023-08-24T11:44:05;6.80;;;1.03;;
64353;SDS011;50681;53.334;-6.536;2023-08-24T11:46:31;2.67;;;0.80;;
64353;SDS011;50681;53.334;-6.536;2023-08-24T11:48:58;1.92;;;0.50;;
64353;SDS011;50681;53.334;-6.536;2023-08-24T11:51:25;5.10;;;1.08;;
64353;SDS011;50681;53.334;-6.536;2023-08-24T11:53:55;5.78;;;0.77;;
64353;SDS011;50681;53.334;-6.536;2023-08-24T11:56:23;3.10;;;0.68;;
64353;SDS011;50681;53.334;-6.536;2023-08-24T11:58:49;3.20;;;0.60;;
64353;SDS011;50681;53.334;-6.536;2023-08-24T12:01:16;5.22;;;0.65;;
64353;SDS011;50681;53.334;-6.536;2023-08-24T12:03:42;3.03;;;0.95;;
64353;SDS011;50681;53.334;-6.536;2023-08-24T12:06:11;4.68;;;0.73;;
64353;SDS011;50681;53.334;-6.536;2023-08-24T12:08:42;4.30;;;0.43;;
64353;SDS011;50681;53.334;-6.536;2023-08-24T12:11:12;4.05;;;0.70;;
64353;SDS011;50681;53.334;-6.536;2023-08-24T12:13:48;2.35;;;0.77;;
64353;SDS011;50681;53.334;-6.536;2023-08-24T12:16:15;3.72;;;0.70;;
64353;SDS011;50681;53.334;-6.536;2023-08-24T12:18:54;3.20;;;0.75;;
64353;SDS011;50681;53.334;-6.536;2023-08-24T12:21:22;3.88;;;0.90;;
64353;SDS011;50681;53.334;-6.536;2023-08-24T12:26:28;3.38;;;0.80;;
64353;SDS011;50681;53.334;-6.536;2023-08-24T12:29:08;5.38;;;0.98;;
64353;SDS011;50681;53.334;-6.536;2023-08-24T12:31:34;2.70;;;0.88;;
64353;SDS011;50681;53.334;-6.536;2023-08-24T12:36:31;9.32;;;1.33;;
64353;SDS011;50681;53.334;-6.536;2023-08-24T12:38:58;14.80;;;2.97;;
64353;SDS011;50681;53.334;-6.536;2023-08-24T12:41:23;4.68;;;0.60;;
64353;SDS011;50681;53.334;-6.536;2023-08-24T12:43:50;7.28;;;1.45;;
64353;SDS011;50681;53.334;-6.536;2023-08-24T12:46:16;5.82;;;1.00;;
64353;SDS011;50681;53.334;-6.536;2023-08-24T12:48:41;7.07;;;1.00;;
64353;SDS011;50681;53.334;-6.536;2023-08-24T12:51:07;2.57;;;0.90;;
64353;SDS011;50681;53.334;-6.536;2023-08-24T12:53:32;3.37;;;1.03;;
64353;SDS011;50681;53.334;-6.536;2023-08-24T12:55:58;6.43;;;0.80;;
64353;SDS011;50681;53.334;-6.536;2023-08-24T12:58:23;1.87;;;0.80;;
64353;SDS011;50681;53.334;-6.536;2023-08-24T13:00:49;4.18;;;0.90;;
64353;SDS011;50681;53.334;-6.536;2023-08-24T13:03:14;5.05;;;0.90;;
64353;SDS011;50681;53.334;-6.536;2023-08-24T13:05:40;2.65;;;1.08;;
64353;SDS011;50681;53.334;-6.536;2023-08-24T13:08:05;6.70;;;1.07;;
64353;SDS011;50681;53.334;-6.536;2023-08-24T13:10:30;4.50;;;0.97;;
64353;SDS011;50681;53.334;-6.536;2023-08-24T13:12:56;2.03;;;0.77;;
64353;SDS011;50681;53.334;-6.536;2023-08-24T13:15:22;4.53;;;1.10;;
64353;SDS011;50681;53.334;-6.536;2023-08-24T13:17:47;5.22;;;0.88;;
64353;SDS011;50681;53.334;-6.536;2023-08-24T13:20:13;3.47;;;0.68;;
64353;SDS011;50681;53.334;-6.536;2023-08-24T13:22:38;2.77;;;0.70;;
64353;SDS011;50681;53.334;-6.536;2023-08-24T13:25:04;3.40;;;1.07;;
64353;SDS011;50681;53.334;-6.536;2023-08-24T13:27:29;4.22;;;0.85;;
64353;SDS011;50681;53.334;-6.536;2023-08-24T13:29:56;4.90;;;1.13;;
64353;SDS011;50681;53.334;-6.536;2023-08-24T13:32:24;2.50;;;0.93;;
64353;SDS011;50681;53.334;-6.536;2023-08-24T13:34:50;1.67;;;0.67;;
64353;SDS011;50681;53.334;-6.536;2023-08-24T13:37:16;5.90;;;0.90;;
64353;SDS011;50681;53.334;-6.536;2023-08-24T13:39:42;6.55;;;0.80;;
64353;SDS011;50681;53.334;-6.536;2023-08-24T13:42:08;6.80;;;0.82;;
64353;SDS011;50681;53.334;-6.536;2023-08-24T13:44:33;0.83;;;0.50;;
64353;SDS011;50681;53.334;-6.536;2023-08-24T13:46:58;3.57;;;0.80;;
64353;SDS011;50681;53.334;-6.536;2023-08-24T13:49:24;2.80;;;1.23;;
64353;SDS011;50681;53.334;-6.536;2023-08-24T13:51:49;5.83;;;1.00;;
64353;SDS011;50681;53.334;-6.536;2023-08-24T13:54:15;2.77;;;0.83;;
64353;SDS011;50681;53.334;-6.536;2023-08-24T13:56:43;2.13;;;0.60;;
64353;SDS011;50681;53.334;-6.536;2023-08-24T13:59:12;2.90;;;0.73;;
64353;SDS011;50681;53.334;-6.536;2023-08-24T14:01:39;1.45;;;0.60;;
64353;SDS011;50681;53.334;-6.536;2023-08-24T14:04:06;5.20;;;1.00;;
64353;SDS011;50681;53.334;-6.536;2023-08-24T14:06:32;8.07;;;0.82;;
64353;SDS011;50681;53.334;-6.536;2023-08-24T14:09:00;3.15;;;0.77;;
64353;SDS011;50681;53.334;-6.536;2023-08-24T14:11:25;3.20;;;0.57;;
64353;SDS011;50681;53.334;-6.536;2023-08-24T14:13:52;5.28;;;0.73;;
64353;SDS011;50681;53.334;-6.536;2023-08-24T14:16:18;3.17;;;0.60;;
64353;SDS011;50681;53.334;-6.536;2023-08-24T14:18:44;3.50;;;0.55;;
64353;SDS011;50681;53.334;-6.536;2023-08-24T14:21:10;2.15;;;0.47;;
64353;SDS011;50681;53.334;-6.536;2023-08-24T14:23:36;3.00;;;0.40;;
64353;SDS011;50681;53.334;-6.536;2023-08-24T14:26:01;2.47;;;0.70;;
64353;SDS011;50681;53.334;-6.536;2023-08-24T14:28:29;7.18;;;0.50;;
64353;SDS011;50681;53.334;-6.536;2023-08-24T14:31:22;1.13;;;0.50;;
64353;SDS011;50681;53.334;-6.536;2023-08-24T14:33:49;2.80;;;0.80;;
64353;SDS011;50681;53.334;-6.536;2023-08-24T14:38:41;5.78;;;0.82;;
64353;SDS011;50681;53.334;-6.536;2023-08-24T14:41:10;2.38;;;0.93;;
64353;SDS011;50681;53.334;-6.536;2023-08-24T14:43:36;4.47;;;1.10;;
64353;SDS011;50681;53.334;-6.536;2023-08-24T14:46:02;2.95;;;0.90;;
64353;SDS011;50681;53.334;-6.536;2023-08-24T14:48:27;1.95;;;0.50;;
64353;SDS011;50681;53.334;-6.536;2023-08-24T14:50:54;4.15;;;1.00;;
64353;SDS011;50681;53.334;-6.536;2023-08-24T14:53:19;3.70;;;0.80;;
64353;SDS011;50681;53.334;-6.536;2023-08-24T14:55:45;4.57;;;1.13;;
64353;SDS011;50681;53.334;-6.536;2023-08-24T14:58:12;0.90;;;0.40;;
64353;SDS011;50681;53.334;-6.536;2023-08-24T15:00:38;2.30;;;0.73;;
64353;SDS011;50681;53.334;-6.536;2023-08-24T15:03:04;2.50;;;0.50;;
64353;SDS011;50681;53.334;-6.536;2023-08-24T15:05:29;4.03;;;1.10;;
64353;SDS011;50681;53.334;-6.536;2023-08-24T15:07:55;2.20;;;0.75;;
64353;SDS011;50681;53.334;-6.536;2023-08-24T15:10:21;1.48;;;0.50;;